Time;durP1;ratioP1;P1;durP2;ratioP2;P2;SDS_P1;SDS_P2;PMS_P1;PMS_P2;Temp;Humidity;BMP_temperature;BMP_pressure;BME280_temperature;BME280_humidity;BME280_pressure;Samples;Min_cycle;Max_cycle;Signal;HPM_P1;HPM_P2
2024/01/27 00:01:46;;;;;;;;;;;;;;;-144.99;99.76;52643.78;5003854;28;20011;-75
2024/01/27 00:04:12;;;;;;;;;;;;;;;-144.99;100.00;52578.53;5005665;28;19979;-74
2024/01/27 00:06:40;;;;;;;;;;;;;;;-144.99;100.00;52594.84;5006139;28;20376;-74
2024/01/27 00:09:07;;;;;;;;;;;;;;;-144.99;100.00;52594.84;4997660;28;20012;-73
2024/01/27 00:11:33;;;;;;;;;;;;;;;-144.99;100.00;52619.31;5005543;28;19937;-73
2024/01/27 00:14:00;;;;;;;;;;;;;;;-144.99;100.00;52611.16;5002950;28;19937;-73
2024/01/27 00:16:26;;;;;;;;;;;;;;;-144.99;100.00;52582.63;4995955;28;19929;-72
2024/01/27 00:18:53;;;;;;;;;;;;;;;-144.99;100.00;52574.47;5000926;28;20020;-74
2024/01/27 00:21:19;;;;;;;;;;;;;;;-144.99;100.00;52590.78;5005891;28;20027;-74
2024/01/27 00:23:47;;;;;;;;;;;;;;;-144.99;100.00;52635.63;5000374;28;19937;-73
2024/01/27 00:26:14;;;;;;;;;;;;;;;-144.99;100.00;52594.84;4999816;28;19951;-74
2024/01/27 00:28:40;;;;;;;;;;;;;;;-144.99;100.00;52619.31;5004719;28;20369;-70
2024/01/27 00:31:07;;;;;;;;;;;;;;;-144.99;100.00;52623.38;5005806;28;20047;-70
2024/01/27 00:33:33;;;;;;;;;;;;;;;-144.99;100.00;52639.69;4998785;28;19945;-72
2024/01/27 00:36:00;;;;;;;;;;;;;;;-144.99;100.00;52562.25;5004926;28;20341;-72
2024/01/27 00:38:26;;;;;;;;;;;;;;;-144.99;100.00;52615.25;5005749;28;20324;-72
2024/01/27 00:40:54;;;;;;;;;;;;;;;-144.99;100.00;52615.25;5000798;28;19971;-73
2024/01/27 00:43:20;;;;;;;;;;;;;;;-144.99;100.00;52631.53;5005579;28;19968;-74
2024/01/27 00:45:47;;;;;;;;;;;;;;;-144.99;100.00;52603.00;5001596;28;19929;-75
2024/01/27 00:48:13;;;;;;;;;;;;;;;-144.99;100.00;52596.88;5001467;28;19961;-74
2024/01/27 00:50:40;;;;;;;;;;;;;;;-144.99;100.00;52631.53;5001655;28;20020;-74
2024/01/27 00:53:06;;;;;;;;;;;;;;;-144.99;100.00;52611.16;4999544;28;20027;-75
2024/01/27 00:55:33;;;;;;;;;;;;;;;-144.99;100.00;52607.09;4996282;28;19964;-74
2024/01/27 00:58:01;;;;;;;;;;;;;;;-144.99;100.00;52600.97;5005894;28;20033;-74
2024/01/27 01:00:30;;;;;;;;;;;;;;;-144.99;100.00;52607.09;5004910;28;19933;-74
2024/01/27 01:02:57;;;;;;;;;;;;;;;-144.99;100.00;52615.25;5000319;28;19930;-66
2024/01/27 01:05:23;;;;;;;;;;;;;;;-144.99;100.00;52570.38;5002095;28;20265;-72
2024/01/27 01:07:50;;;;;;;;;;;;;;;-144.99;100.00;52603.00;5004446;28;19929;-72
2024/01/27 01:10:16;;;;;;;;;;;;;;;-144.99;100.00;52627.47;4659123;28;9999654;-72
2024/01/27 01:12:43;;;;;;;;;;;;;;;-144.99;100.00;52615.25;5005135;28;20071;-72
2024/01/27 01:15:11;;;;;;;;;;;;;;;-144.99;100.00;52660.09;5002709;28;19929;-72
2024/01/27 01:17:37;;;;;;;;;;;;;;;-144.99;100.00;52594.84;5005499;28;19937;-73
2024/01/27 01:20:04;;;;;;;;;;;;;;;-144.99;100.00;52590.78;5006386;28;19999;-73
2024/01/27 01:22:30;;;;;;;;;;;;;;;-144.99;100.00;52635.63;5002234;28;19984;-78
2024/01/27 01:24:57;;;;;;;;;;;;;;;-144.99;100.00;52596.88;5004247;28;19930;-78
2024/01/27 01:27:24;;;;;;;;;;;;;;;-144.99;100.00;52619.31;5005192;28;20035;-77
2024/01/27 01:29:50;;;;;;;;;;;;;;;-144.99;100.00;52603.00;5005240;28;19933;-77
2024/01/27 01:32:18;;;;;;;;;;;;;;;-144.99;100.00;52625.44;5001431;28;19965;-78
2024/01/27 01:34:46;;;;;;;;;;;;;;;-144.99;100.00;52574.47;4997235;28;20041;-76
2024/01/27 01:37:13;;;;;;;;;;;;;;;-144.99;100.00;52623.38;4986246;28;20351;-76
2024/01/27 01:39:40;;;;;;;;;;;;;;;-144.99;100.00;52611.16;5001033;28;20435;-76
2024/01/27 01:42:06;;;;;;;;;;;;;;;-144.99;100.00;52627.47;4998987;28;20302;-75
2024/01/27 01:44:33;;;;;;;;;;;;;;;-144.99;100.00;52639.69;5003929;28;19972;-76
2024/01/27 01:46:59;;;;;;;;;;;;;;;-144.99;100.00;52594.84;5005337;28;20012;-76
2024/01/27 01:49:27;;;;;;;;;;;;;;;-144.99;100.00;52639.69;5006950;28;19929;-76
2024/01/27 01:51:54;;;;;;;;;;;;;;;-144.99;100.00;52600.97;5000103;28;19957;-76
2024/01/27 01:54:22;;;;;;;;;;;;;;;-144.99;100.00;52611.16;5002421;28;19965;-77
2024/01/27 01:56:48;;;;;;;;;;;;;;;-144.99;100.00;52639.69;5004159;28;19945;-76
2024/01/27 01:59:15;;;;;;;;;;;;;;;-144.99;100.00;52627.47;5004469;28;20275;-76
2024/01/27 02:01:41;;;;;;;;;;;;;;;-144.99;100.00;52619.31;5004950;28;19925;-76
2024/01/27 02:04:08;;;;;;;;;;;;;;;-144.99;100.00;52635.63;5002799;28;20024;-76
2024/01/27 02:06:36;;;;;;;;;;;;;;;-144.99;100.00;52594.84;5001721;28;20065;-76
2024/01/27 02:09:02;;;;;;;;;;;;;;;-144.99;100.00;52615.25;5008572;28;19972;-76
2024/01/27 02:11:29;;;;;;;;;;;;;;;-144.99;100.00;52576.50;5009700;28;19988;-76
2024/01/27 02:13:55;;;;;;;;;;;;;;;-144.99;100.00;52592.81;5009632;28;20320;-76
2024/01/27 02:16:22;;;;;;;;;;;;;;;-144.99;100.00;52631.53;5005025;28;19930;-76
2024/01/27 02:18:48;;;;;;;;;;;;;;;-144.99;100.00;52574.47;5006537;28;19926;-64
2024/01/27 02:21:15;;;;;;;;;;;;;;;-144.99;100.00;52635.63;5011007;28;20277;-67
2024/01/27 02:23:43;;;;;;;;;;;;;;;-144.99;100.00;52635.63;5012999;28;19976;-66
2024/01/27 02:26:11;;;;;;;;;;;;;;;-144.99;100.00;52582.63;5011092;28;20411;-66
2024/01/27 02:28:37;;;;;;;;;;;;;;;-144.99;100.00;52590.78;4947748;28;1822210;-66
2024/01/27 02:31:04;;;;;;;;;;;;;;;-144.99;100.00;52598.94;5010190;28;19930;-66
2024/01/27 02:33:30;;;;;;;;;;;;;;;-144.99;100.00;52611.16;5014403;28;19971;-64
2024/01/27 02:35:57;;;;;;;;;;;;;;;-144.99;100.00;52586.69;5013493;28;20028;-65
2024/01/27 02:38:23;;;;;;;;;;;;;;;-144.99;100.00;52611.16;5011836;28;19941;-64
2024/01/27 02:40:50;;;;;;;;;;;;;;;-144.99;100.00;52619.31;5014094;28;19979;-65
2024/01/27 02:43:18;;;;;;;;;;;;;;;-144.99;100.00;52600.97;5014215;28;19943;-65
2024/01/27 02:45:44;;;;;;;;;;;;;;;-144.99;100.00;52619.31;5011099;28;20392;-65
2024/01/27 02:48:11;;;;;;;;;;;;;;;-144.99;100.00;52619.31;5013896;28;19968;-65
2024/01/27 02:50:37;;;;;;;;;;;;;;;-144.99;100.00;52615.25;5010803;28;19960;-68
2024/01/27 02:53:04;;;;;;;;;;;;;;;-144.99;100.00;52580.59;5007477;28;19972;-67
2024/01/27 02:55:30;;;;;;;;;;;;;;;-144.99;100.00;52639.69;5003806;28;19933;-66
2024/01/27 02:57:57;;;;;;;;;;;;;;;-144.99;100.00;52594.84;5008623;28;20024;-66
2024/01/27 03:00:24;;;;;;;;;;;;;;;-144.99;100.00;52600.97;5010721;28;20017;-67
2024/01/27 03:02:51;;;;;;;;;;;;;;;-144.99;100.00;52578.53;5010058;28;19925;-67
2024/01/27 03:05:17;;;;;;;;;;;;;;;-144.99;100.00;52603.00;5004362;28;20012;-67
2024/01/27 03:07:44;;;;;;;;;;;;;;;-144.99;100.00;52592.81;5006137;28;19987;-67
2024/01/27 03:10:10;;;;;;;;;;;;;;;-144.99;100.00;52627.47;5009206;28;20071;-67
2024/01/27 03:12:37;;;;;;;;;;;;;;;-144.99;100.00;52594.84;5010245;28;19932;-67
2024/01/27 03:15:04;;;;;;;;;;;;;;;-144.99;100.00;52582.63;5010306;28;20392;-66
2024/01/27 03:17:31;;;;;;;;;;;;;;;-144.99;100.00;52582.63;5007170;28;19929;-66
2024/01/27 03:19:58;;;;;;;;;;;;;;;-144.99;100.00;52649.88;5004476;28;20353;-67
2024/01/27 03:22:24;;;;;;;;;;;;;;;-144.99;100.00;52623.38;5010284;28;20343;-66
2024/01/27 03:24:51;;;;;;;;;;;;;;;-144.99;100.00;52656.00;5009262;28;19980;-66
2024/01/27 03:27:18;;;;;;;;;;;;;;;-144.99;100.00;52586.69;5006999;28;19925;-64
2024/01/27 03:29:44;;;;;;;;;;;;;;;-144.99;100.00;52649.88;5008118;28;20012;-65
2024/01/27 03:32:11;;;;;;;;;;;;;;;-144.99;100.00;52637.66;5009660;28;20354;-67
2024/01/27 03:34:38;;;;;;;;;;;;;;;-144.99;100.00;52633.59;5009720;28;20708;-67
2024/01/27 03:37:05;;;;;;;;;;;;;;;-144.99;100.00;52603.00;5009158;28;19988;-66
2024/01/27 03:39:31;;;;;;;;;;;;;;;-144.99;100.00;52631.53;5007259;28;19937;-67
2024/01/27 03:41:58;;;;;;;;;;;;;;;-144.99;100.00;52582.63;5008573;28;19961;-66
2024/01/27 03:44:24;;;;;;;;;;;;;;;-144.99;100.00;52651.94;5005591;28;20016;-66
2024/01/27 03:46:51;;;;;;;;;;;;;;;-144.99;100.00;52615.25;5008123;28;20388;-66
2024/01/27 03:49:17;;;;;;;;;;;;;;;-144.99;100.00;52615.25;5007847;28;20427;-67
2024/01/27 03:51:45;;;;;;;;;;;;;;;-144.99;100.00;52615.25;5007443;28;19986;-67
2024/01/27 03:54:12;;;;;;;;;;;;;;;-144.99;100.00;52611.16;5005437;28;20017;-67
2024/01/27 03:56:38;;;;;;;;;;;;;;;-144.99;100.00;52619.31;5006845;28;19976;-67
2024/01/27 03:59:06;;;;;;;;;;;;;;;-144.99;100.00;52611.16;5008979;28;19929;-67
2024/01/27 04:01:32;;;;;;;;;;;;;;;-144.99;100.00;52627.47;5006368;28;19960;-67
2024/01/27 04:03:59;;;;;;;;;;;;;;;-144.99;100.00;52635.63;5009206;28;20045;-67
2024/01/27 04:06:25;;;;;;;;;;;;;;;-144.99;100.00;52635.63;5008436;28;19972;-66
2024/01/27 04:08:53;;;;;;;;;;;;;;;-144.99;100.00;52651.94;5001694;28;20020;-67
2024/01/27 04:11:21;;;;;;;;;;;;;;;-144.99;100.00;52594.84;5006327;28;19983;-67
2024/01/27 04:13:47;;;;;;;;;;;;;;;-144.99;100.00;52615.25;5008424;28;19996;-66
2024/01/27 04:16:14;;;;;;;;;;;;;;;-144.99;100.00;52623.38;5008228;28;20016;-67
2024/01/27 04:18:40;;;;;;;;;;;;;;;-144.99;100.00;52594.84;5006855;28;19980;-66
2024/01/27 04:21:07;;;;;;;;;;;;;;;-144.99;100.00;52615.25;5007373;28;19932;-66
2024/01/27 04:23:33;;;;;;;;;;;;;;;-144.99;100.00;52637.66;5006586;28;19973;-67
2024/01/27 04:26:02;;;;;;;;;;;;;;;-144.99;100.00;52617.28;5007273;28;19929;-67
2024/01/27 04:28:30;;;;;;;;;;;;;;;-144.99;100.00;52621.34;5009372;28;19929;-67
2024/01/27 04:30:56;;;;;;;;;;;;;;;-144.99;100.00;52623.38;5005927;28;19929;-67
2024/01/27 04:33:23;;;;;;;;;;;;;;;-144.99;100.00;52631.53;5006962;28;19925;-67
2024/01/27 04:35:49;;;;;;;;;;;;;;;-144.99;100.00;52619.31;5008682;28;20012;-65
2024/01/27 04:38:15;;;;;;;;;;;;;;;-144.99;100.00;52631.53;5007221;28;19966;-64
2024/01/27 04:40:42;;;;;;;;;;;;;;;-144.99;100.00;52641.72;5007420;28;19932;-64
2024/01/27 04:43:10;;;;;;;;;;;;;;;-144.99;100.00;52570.38;5008123;28;20417;-64
2024/01/27 04:45:36;;;;;;;;;;;;;;;-144.99;100.00;52623.38;4999844;28;20263;-64
2024/01/27 04:48:03;;;;;;;;;;;;;;;-144.99;100.00;52619.31;5007288;28;19980;-71
2024/01/27 04:50:29;;;;;;;;;;;;;;;-144.99;100.00;52596.88;5006852;28;19976;-73
2024/01/27 04:52:56;;;;;;;;;;;;;;;-144.99;100.00;52639.69;4999576;28;20008;-73
2024/01/27 04:55:22;;;;;;;;;;;;;;;-144.99;100.00;52590.78;5001012;28;19964;-73
2024/01/27 04:57:49;;;;;;;;;;;;;;;-144.99;100.00;52619.31;5005945;28;19956;-73
2024/01/27 05:00:17;;;;;;;;;;;;;;;-144.99;100.00;52625.44;5000376;28;19992;-73
2024/01/27 05:02:43;;;;;;;;;;;;;;;-144.99;100.00;52633.59;5005798;28;19934;-71
2024/01/27 05:05:10;;;;;;;;;;;;;;;-144.99;100.00;52627.47;4997532;28;19980;-71
2024/01/27 05:07:37;;;;;;;;;;;;;;;-144.99;100.00;52643.78;5007018;28;20008;-71
2024/01/27 05:10:03;;;;;;;;;;;;;;;-144.99;100.00;52590.78;5006153;28;19960;-70
2024/01/27 05:12:30;;;;;;;;;;;;;;;-144.99;100.00;52590.78;5007237;28;19925;-70
2024/01/27 05:14:56;;;;;;;;;;;;;;;-144.99;100.00;52615.25;5002938;28;19981;-69
2024/01/27 05:17:24;;;;;;;;;;;;;;;-144.99;100.00;52627.47;5007858;28;19953;-67
2024/01/27 05:19:51;;;;;;;;;;;;;;;-144.99;100.00;52651.94;5006896;28;20008;-67
2024/01/27 05:22:17;;;;;;;;;;;;;;;-144.99;100.00;52615.25;5004853;28;19991;-70
2024/01/27 05:24:44;;;;;;;;;;;;;;;-144.99;100.00;52635.63;5007424;28;19929;-70
2024/01/27 05:27:10;;;;;;;;;;;;;;;-144.99;100.00;52594.84;5006079;28;19930;-69
2024/01/27 05:29:37;;;;;;;;;;;;;;;-144.99;100.00;52598.94;5001337;28;20376;-69
2024/01/27 05:32:04;;;;;;;;;;;;;;;-144.99;100.00;52607.09;5003633;28;20369;-69
2024/01/27 05:34:32;;;;;;;;;;;;;;;-144.99;100.00;52627.47;5007825;28;19961;-70
2024/01/27 05:36:58;;;;;;;;;;;;;;;-144.99;100.00;52607.09;5011470;28;19925;-69
2024/01/27 05:39:25;;;;;;;;;;;;;;;-144.99;100.00;52611.16;5011854;28;19926;-72
2024/01/27 05:41:51;;;;;;;;;;;;;;;-144.99;100.00;52615.25;5009162;28;20040;-72
2024/01/27 05:44:18;;;;;;;;;;;;;;;-144.99;100.00;52629.50;5011743;28;19980;-72
2024/01/27 05:46:44;;;;;;;;;;;;;;;-144.99;100.00;52607.09;5011431;28;20059;-72
2024/01/27 05:49:11;;;;;;;;;;;;;;;-144.99;100.00;52603.00;5009901;28;20335;-72
2024/01/27 05:51:39;;;;;;;;;;;;;;;-144.99;100.00;52598.94;5012094;28;19937;-72
2024/01/27 05:54:05;;;;;;;;;;;;;;;-144.99;100.00;52615.25;5010114;28;19937;-71
2024/01/27 05:56:32;;;;;;;;;;;;;;;-144.99;100.00;52625.44;5011792;28;20027;-71
2024/01/27 05:58:58;;;;;;;;;;;;;;;-144.99;100.00;52627.47;5013742;28;20392;-71
2024/01/27 06:01:25;;;;;;;;;;;;;;;-144.99;100.00;52619.31;5010976;28;19926;-71
2024/01/27 06:03:51;;;;;;;;;;;;;;;-144.99;100.00;52592.81;5004689;28;20045;-71
2024/01/27 06:06:18;;;;;;;;;;;;;;;-144.99;100.00;52623.38;5009059;28;19947;-71
2024/01/27 06:08:46;;;;;;;;;;;;;;;-144.99;100.00;52643.78;5009777;28;20030;-71
2024/01/27 06:11:12;;;;;;;;;;;;;;;-144.99;100.00;52594.84;5008131;28;20059;-71
2024/01/27 06:13:40;;;;;;;;;;;;;;;-144.99;100.00;52590.78;5007820;28;19959;-71
2024/01/27 06:16:10;;;;;;;;;;;;;;;-144.99;100.00;52631.53;5005794;28;19973;-71
2024/01/27 06:18:36;;;;;;;;;;;;;;;-144.99;100.00;52592.81;5006497;28;19988;-71
2024/01/27 06:21:03;;;;;;;;;;;;;;;-144.99;100.00;52615.25;5011440;28;19968;-71
2024/01/27 06:23:30;;;;;;;;;;;;;;;-144.99;100.00;52613.19;5010039;28;19933;-71
2024/01/27 06:25:58;;;;;;;;;;;;;;;-144.99;100.00;52621.34;5009152;28;19926;-71
2024/01/27 06:28:24;;;;;;;;;;;;;;;-144.99;100.00;52611.16;5011694;28;19949;-69
2024/01/27 06:30:51;;;;;;;;;;;;;;;-144.99;100.00;52647.84;5009797;28;19929;-70
2024/01/27 06:33:17;;;;;;;;;;;;;;;-144.99;100.00;52615.25;5009341;28;19964;-71
2024/01/27 06:35:44;;;;;;;;;;;;;;;-144.99;100.00;52609.13;5005250;28;19968;-71
2024/01/27 06:38:10;;;;;;;;;;;;;;;-144.99;100.00;52603.00;5005295;28;19957;-70
2024/01/27 06:40:37;;;;;;;;;;;;;;;-144.99;100.00;52635.63;5009979;28;20016;-70
2024/01/27 06:43:05;;;;;;;;;;;;;;;-144.99;100.00;52611.16;5008489;28;20021;-70
2024/01/27 06:45:31;;;;;;;;;;;;;;;-144.99;100.00;52643.78;5009820;28;20052;-70
2024/01/27 06:47:58;;;;;;;;;;;;;;;-144.99;100.00;52619.31;5009902;28;20467;-70
2024/01/27 06:50:24;;;;;;;;;;;;;;;-144.99;100.00;52619.31;5006785;28;20187;-70
2024/01/27 06:52:51;;;;;;;;;;;;;;;-144.99;100.00;52656.00;5009541;28;19925;-70
2024/01/27 06:55:17;;;;;;;;;;;;;;;-144.99;100.00;52617.28;4997207;28;20000;-70
2024/01/27 06:57:43;;;;;;;;;;;;;;;-144.99;100.00;52643.78;5009990;28;19961;-69
2024/01/27 07:00:14;;;;;;;;;;;;;;;-144.99;100.00;52611.16;5009368;28;20339;-69
2024/01/27 07:02:43;;;;;;;;;;;;;;;-144.99;100.00;52631.53;5008762;28;20487;-69
2024/01/27 07:05:10;;;;;;;;;;;;;;;-144.99;100.00;52635.63;5007987;28;19925;-70
2024/01/27 07:07:36;;;;;;;;;;;;;;;-144.99;100.00;52588.75;5008822;28;20020;-69
2024/01/27 07:10:03;;;;;;;;;;;;;;;-144.99;100.00;52582.63;5006084;28;19973;-70
2024/01/27 07:12:30;;;;;;;;;;;;;;;-144.99;100.00;52615.25;5009421;28;19956;-70
2024/01/27 07:14:57;;;;;;;;;;;;;;;-144.99;100.00;52596.88;5001522;28;20000;-70
2024/01/27 07:17:24;;;;;;;;;;;;;;;-144.99;100.00;52639.69;5008884;28;20181;-69
2024/01/27 07:19:52;;;;;;;;;;;;;;;-144.99;100.00;52611.16;5006816;28;19968;-68
2024/01/27 07:22:18;;;;;;;;;;;;;;;-144.99;100.00;52623.38;5010208;28;19925;-69
2024/01/27 07:24:45;;;;;;;;;;;;;;;-144.99;100.00;52643.78;4998006;28;19929;-70
2024/01/27 07:27:13;;;;;;;;;;;;;;;-144.99;100.00;52660.09;5007358;28;20017;-70
2024/01/27 07:29:39;;;;;;;;;;;;;;;-144.99;100.00;52631.53;5008809;28;20368;-70
2024/01/27 07:32:07;;;;;;;;;;;;;;;-144.99;100.00;52639.69;5001563;28;19953;-72
2024/01/27 07:34:35;;;;;;;;;;;;;;;-144.99;100.00;52672.31;5007055;28;19925;-70
2024/01/27 07:37:02;;;;;;;;;;;;;;;-144.99;100.00;52645.81;5005813;28;20018;-70
2024/01/27 07:39:28;;;;;;;;;;;;;;;-144.99;100.00;52615.25;5007923;28;20222;-68
2024/01/27 07:41:54;;;;;;;;;;;;;;;-144.99;100.00;52596.88;5009330;28;19938;-68
2024/01/27 07:44:21;;;;;;;;;;;;;;;-144.99;100.00;52635.63;5009681;28;20380;-69
2024/01/27 07:46:48;;;;;;;;;;;;;;;-144.99;100.00;52623.38;5021556;28;19930;-70
2024/01/27 07:49:15;;;;;;;;;;;;;;;-144.99;100.00;52635.63;5018694;28;19930;-71
2024/01/27 07:51:42;;;;;;;;;;;;;;;-144.99;100.00;52596.88;5016470;28;20338;-70
2024/01/27 07:54:09;;;;;;;;;;;;;;;-144.99;100.00;52623.38;5013110;28;19937;-71
2024/01/27 07:56:35;;;;;;;;;;;;;;;-144.99;100.00;52576.50;5010503;28;19926;-69
2024/01/27 07:59:02;;;;;;;;;;;;;;;-144.99;100.00;52625.44;5016167;28;19935;-69
2024/01/27 08:01:29;;;;;;;;;;;;;;;-144.99;100.00;52582.63;5006428;28;19979;-71
2024/01/27 08:03:55;;;;;;;;;;;;;;;-144.99;100.00;52623.38;5009746;28;19984;-70
2024/01/27 08:06:28;;;;;;;;;;;;;;;-144.99;100.00;52639.69;5009637;28;19972;-64
2024/01/27 08:08:56;;;;;;;;;;;;;;;-144.99;100.00;52619.31;5008994;28;19925;-72
2024/01/27 08:11:24;;;;;;;;;;;;;;;-144.99;100.00;52627.47;5004640;28;20039;-72
2024/01/27 08:13:51;;;;;;;;;;;;;;;-144.99;100.00;52607.09;5013761;28;20418;-73
2024/01/27 08:16:18;;;;;;;;;;;;;;;-144.99;100.00;52586.69;5014688;28;20306;-72
2024/01/27 08:18:45;;;;;;;;;;;;;;;-144.99;100.00;52594.84;5011892;28;19929;-72
2024/01/27 08:21:11;;;;;;;;;;;;;;;-144.99;100.00;52582.63;5001746;28;19926;-73
2024/01/27 08:23:38;;;;;;;;;;;;;;;-144.99;100.00;52552.03;5004987;28;19953;-72
2024/01/27 08:26:06;;;;;;;;;;;;;;;-144.99;100.00;52566.31;5002086;28;19926;-72
2024/01/27 08:28:32;;;;;;;;;;;;;;;-144.99;100.00;52607.09;5007074;28;19964;-72
2024/01/27 08:31:01;;;;;;;;;;;;;;;-144.99;100.00;52578.53;5004422;28;19975;-72
2024/01/27 08:33:28;;;;;;;;;;;;;;;-144.99;100.00;52590.78;5006729;28;19949;-72
2024/01/27 08:35:54;;;;;;;;;;;;;;;-144.99;100.00;52611.16;5003367;28;19929;-72
2024/01/27 08:38:21;;;;;;;;;;;;;;;-144.99;100.00;52558.16;5007438;28;19930;-72
2024/01/27 08:40:47;;;;;;;;;;;;;;;-144.99;100.00;52582.63;5006438;28;19992;-71
2024/01/27 08:43:16;;;;;;;;;;;;;;;-144.99;100.00;52586.69;5006117;28;19972;-71
2024/01/27 08:45:42;;;;;;;;;;;;;;;-144.99;100.00;52627.47;5006020;28;19926;-71
2024/01/27 08:48:09;;;;;;;;;;;;;;;-144.99;100.00;52560.19;5005790;28;20218;-72
2024/01/27 08:50:36;;;;;;;;;;;;;;;-144.99;100.00;52572.44;5007114;28;19926;-71
2024/01/27 08:53:02;;;;;;;;;;;;;;;-144.99;100.00;52607.09;5003508;28;19969;-71
2024/01/27 08:55:29;;;;;;;;;;;;;;;-144.99;100.00;52580.59;5006605;28;19988;-70
2024/01/27 08:57:56;;;;;;;;;;;;;;;-144.99;100.00;52594.84;5004748;28;19936;-71
2024/01/27 09:00:24;;;;;;;;;;;;;;;-144.99;100.00;52584.66;5007993;28;19968;-70
2024/01/27 09:02:51;;;;;;;;;;;;;;;-144.99;100.00;52566.31;5009164;28;20056;-70
2024/01/27 09:05:18;;;;;;;;;;;;;;;-144.99;99.94;52590.78;5005810;28;20032;-72
2024/01/27 09:07:44;;;;;;;;;;;;;;;-144.99;99.32;52576.50;5008040;28;20041;-72
2024/01/27 09:10:12;;;;;;;;;;;;;;;-144.99;98.65;52545.94;5004500;28;20017;-71
2024/01/27 09:12:39;;;;;;;;;;;;;;;-144.99;98.30;52611.16;5011341;28;20053;-70
2024/01/27 09:15:07;;;;;;;;;;;;;;;-144.99;97.46;52517.41;5009008;28;20451;-71
2024/01/27 09:17:35;;;;;;;;;;;;;;;-144.99;97.54;52582.63;5010766;28;19925;-73
2024/01/27 09:20:01;;;;;;;;;;;;;;;-144.99;97.06;52574.47;4994312;28;20009;-70
2024/01/27 09:22:28;;;;;;;;;;;;;;;-144.99;95.09;52552.03;5012202;28;19929;-70
2024/01/27 09:24:55;;;;;;;;;;;;;;;-144.99;93.97;52541.84;5009343;28;19929;-70
2024/01/27 09:27:21;;;;;;;;;;;;;;;-144.99;94.16;52558.16;5007218;28;20445;-69
2024/01/27 09:29:47;;;;;;;;;;;;;;;-144.99;93.73;52558.16;5011046;28;20304;-72
2024/01/27 09:32:14;;;;;;;;;;;;;;;-144.99;93.63;52572.44;5011942;28;19976;-72
2024/01/27 09:34:42;;;;;;;;;;;;;;;-144.99;92.97;52533.69;5006590;28;19933;-73
2024/01/27 09:37:08;;;;;;;;;;;;;;;-144.99;92.11;52550.00;5004612;28;19929;-72
2024/01/27 09:39:35;;;;;;;;;;;;;;;-144.99;90.31;52554.09;5011967;28;19979;-71
2024/01/27 09:42:05;;;;;;;;;;;;;;;-144.99;89.78;52529.63;5011438;28;20388;-70
2024/01/27 09:44:32;;;;;;;;;;;;;;;-144.99;88.44;52547.97;5011264;28;19980;-71
2024/01/27 09:46:59;;;;;;;;;;;;;;;-144.99;87.61;52584.66;5010499;28;20319;-72
2024/01/27 09:49:27;;;;;;;;;;;;;;;-144.99;85.89;52521.47;5010230;28;19925;-72
2024/01/27 09:51:56;;;;;;;;;;;;;;;-144.99;84.89;52552.03;5011536;28;19929;-71
2024/01/27 09:54:22;;;;;;;;;;;;;;;-144.99;84.61;52556.13;5001388;28;19981;-71
2024/01/27 09:56:50;;;;;;;;;;;;;;;-144.99;83.99;52513.31;4992131;28;20431;-72
2024/01/27 09:59:18;;;;;;;;;;;;;;;-144.99;83.86;52554.09;5008104;28;19929;-72
2024/01/27 10:01:45;;;;;;;;;;;;;;;-144.99;83.32;52529.63;5010841;28;19978;-72
2024/01/27 10:04:12;;;;;;;;;;;;;;;-144.99;83.62;52568.34;5011320;28;20021;-72
2024/01/27 10:06:39;;;;;;;;;;;;;;;-144.99;84.56;52541.84;5008398;28;19987;-71
2024/01/27 10:09:07;;;;;;;;;;;;;;;-144.99;83.82;52541.84;5008266;28;19926;-71
2024/01/27 10:11:37;;;;;;;;;;;;;;;-144.99;82.24;52484.78;5008777;28;19943;-71
2024/01/27 10:14:03;;;;;;;;;;;;;;;-144.99;80.68;52509.25;5010653;28;19950;-72
2024/01/27 10:16:40;;;;;;;;;;;;;;;-144.99;78.39;52529.63;5010202;28;19936;-71
2024/01/27 10:19:07;;;;;;;;;;;;;;;-144.99;78.73;52545.94;5009791;28;20420;-72
2024/01/27 10:21:33;;;;;;;;;;;;;;;-144.99;77.47;52509.25;5005752;28;19976;-71
2024/01/27 10:24:00;;;;;;;;;;;;;;;-144.99;74.69;52452.16;5010641;28;19964;-72
2024/01/27 10:26:31;;;;;;;;;;;;;;;-144.99;73.70;52458.28;5008833;28;20644;-72
2024/01/27 10:28:57;;;;;;;;;;;;;;;-144.99;74.09;52476.63;5007545;28;19926;-67
2024/01/27 10:31:27;;;;;;;;;;;;;;;-144.99;75.28;52474.59;5006528;28;19926;-71
2024/01/27 10:33:54;;;;;;;;;;;;;;;-144.99;73.96;52497.00;5011025;28;20047;-72
2024/01/27 10:36:20;;;;;;;;;;;;;;;-144.99;72.80;52431.78;5007859;28;20395;-72
2024/01/27 10:38:47;;;;;;;;;;;;;;;-144.99;72.60;52464.41;5007583;28;20016;-72
2024/01/27 10:41:19;;;;;;;;;;;;;;;-144.99;73.06;52435.88;5007963;28;20434;-72
2024/01/27 10:43:50;;;;;;;;;;;;;;;-144.99;72.80;52439.94;5005519;28;19981;-72
2024/01/27 10:46:19;;;;;;;;;;;;;;;-144.99;71.51;52397.13;4999984;28;19936;-72
2024/01/27 10:48:50;;;;;;;;;;;;;;;-144.99;70.51;52388.97;5006326;28;20012;-72
2024/01/27 10:51:18;;;;;;;;;;;;;;;-144.99;71.74;52391.03;5009126;28;19933;-72
2024/01/27 10:53:48;;;;;;;;;;;;;;;-144.99;69.94;52399.19;5004776;28;19988;-72
2024/01/27 10:56:14;;;;;;;;;;;;;;;-144.99;69.94;52391.03;5002178;28;19964;-72
2024/01/27 10:58:41;;;;;;;;;;;;;;;-144.99;70.98;52370.63;5002441;28;20018;-72
2024/01/27 11:01:11;;;;;;;;;;;;;;;-144.99;72.35;52419.56;5009207;28;19941;-72
2024/01/27 11:03:39;;;;;;;;;;;;;;;-144.99;72.99;52425.66;5024747;23;19926;-71
2024/01/27 11:06:06;;;;;;;;;;;;;;;-144.99;72.62;52386.94;5010993;28;20398;-71
2024/01/27 11:08:34;;;;;;;;;;;;;;;-144.99;72.22;52378.78;5008411;28;21187;-71
2024/01/27 11:11:01;;;;;;;;;;;;;;;-144.99;71.97;52417.53;5009197;28;19937;-70
2024/01/27 11:13:28;;;;;;;;;;;;;;;-144.99;71.92;52425.66;5011869;28;19930;-68
2024/01/27 11:15:55;;;;;;;;;;;;;;;-144.99;69.61;52368.59;5006040;28;19930;-70
2024/01/27 11:18:23;;;;;;;;;;;;;;;-144.99;70.31;52378.78;5004732;28;19933;-71
2024/01/27 11:20:49;;;;;;;;;;;;;;;-144.99;70.50;52419.56;5005767;28;19972;-71
2024/01/27 11:23:16;;;;;;;;;;;;;;;-144.99;69.49;52397.13;5009544;28;19969;-71
2024/01/27 11:25:42;;;;;;;;;;;;;;;-144.99;69.93;52360.44;5012472;28;19930;-71
2024/01/27 11:28:13;;;;;;;;;;;;;;;-144.99;68.90;52354.34;5007155;28;20313;-71
2024/01/27 11:30:39;;;;;;;;;;;;;;;-144.99;68.96;52386.94;5008388;28;20356;-71
2024/01/27 11:33:08;;;;;;;;;;;;;;;-144.99;70.32;52409.38;5010457;28;20539;-71
2024/01/27 11:35:36;;;;;;;;;;;;;;;-144.99;71.08;52419.56;5003267;28;19925;-71
2024/01/27 11:38:02;;;;;;;;;;;;;;;-144.99;71.65;52382.88;5007100;28;19925;-71
2024/01/27 11:40:29;;;;;;;;;;;;;;;-144.99;69.46;52378.78;5009720;28;20211;-70
2024/01/27 11:42:56;;;;;;;;;;;;;;;-144.99;68.29;52391.03;5009998;28;20004;-71
2024/01/27 11:45:23;;;;;;;;;;;;;;;-144.99;68.04;52382.88;5009463;28;20133;-72
2024/01/27 11:47:49;;;;;;;;;;;;;;;-144.99;70.75;52403.25;5009693;28;20024;-70
2024/01/27 11:50:17;;;;;;;;;;;;;;;-144.99;70.66;52431.78;4993354;28;20315;-70
2024/01/27 11:52:45;;;;;;;;;;;;;;;-144.99;70.23;52395.09;5008596;28;19957;-71
2024/01/27 11:55:12;;;;;;;;;;;;;;;-144.99;69.28;52403.25;5011550;28;19976;-71
2024/01/27 11:57:38;;;;;;;;;;;;;;;-144.99;68.41;52429.75;5002414;28;20009;-70
2024/01/27 12:00:05;;;;;;;;;;;;;;;-144.99;68.40;52395.09;5003611;28;19953;-69
2024/01/27 12:02:32;;;;;;;;;;;;;;;-144.99;69.98;52435.88;5037323;22;19980;-73
2024/01/27 12:04:58;;;;;;;;;;;;;;;-144.99;71.61;52423.63;4986301;28;19983;-76
2024/01/27 12:07:26;;;;;;;;;;;;;;;-144.99;71.75;52419.56;4995022;28;19926;-74
2024/01/27 12:09:54;;;;;;;;;;;;;;;-144.99;72.20;52435.88;4997838;28;20370;-74
2024/01/27 12:12:21;;;;;;;;;;;;;;;-144.99;71.76;52415.47;4994454;28;20406;-76
2024/01/27 12:14:48;;;;;;;;;;;;;;;-144.99;70.60;52399.19;4990824;28;19991;-72
2024/01/27 12:17:14;;;;;;;;;;;;;;;-144.99;71.36;52472.56;4990312;28;20307;-76
2024/01/27 12:19:47;;;;;;;;;;;;;;;-144.99;72.54;52395.09;4993521;28;20217;-76